Time;durP1;ratioP1;P1;durP2;ratioP2;P2;SDS_P1;SDS_P2;PMS_P1;PMS_P2;Temp;Humidity;BMP_temperature;BMP_pressure;BME280_temperature;BME280_humidity;BME280_pressure;Samples;Min_cycle;Max_cycle;Signal;HPM_P1;HPM_P2
2022/12/08 00:03:36;;;;;;;;;;;;;;;18.62;36.57;95129.81;10437380;28;1963;-51
2022/12/08 00:13:55;;;;;;;;;;;;;;;18.59;36.51;95114.59;10438565;28;1942;-55
2022/12/08 00:18:55;;;;;;;;;;;;;;;18.55;36.44;95124.09;10439843;28;1999;-53
2022/12/08 00:24:03;;;;;;;;;;;;;;;18.58;36.38;95110.44;10440041;28;1983;-50
2022/12/08 00:29:03;;;;;;;;;;;;;;;18.52;36.62;95117.56;10439735;28;1954;-52
2022/12/08 00:34:04;;;;;;;;;;;;;;;18.48;36.46;95107.88;10437610;28;1923;-53
2022/12/08 00:39:04;;;;;;;;;;;;;;;18.45;36.44;95103.97;10453910;28;1962;-52
2022/12/08 00:44:05;;;;;;;;;;;;;;;18.41;36.40;95105.53;10433720;28;2124;-52
2022/12/08 00:49:06;;;;;;;;;;;;;;;18.39;36.45;95099.00;10436634;28;1965;-51
2022/12/08 00:54:06;;;;;;;;;;;;;;;18.39;36.53;95093.75;10435192;28;1981;-53
2022/12/08 00:59:07;;;;;;;;;;;;;;;18.35;36.53;95098.78;10437417;28;1981;-52
2022/12/08 01:04:07;;;;;;;;;;;;;;;18.33;36.46;95089.59;10435955;28;2029;-52
2022/12/08 01:09:08;;;;;;;;;;;;;;;18.30;36.32;95096.19;10430583;28;2003;-51
2022/12/08 01:14:08;;;;;;;;;;;;;;;18.28;36.39;95093.03;10442800;28;2007;-51
2022/12/08 01:19:10;;;;;;;;;;;;;;;18.29;36.21;95088.59;10440310;28;1997;-56
2022/12/08 01:24:11;;;;;;;;;;;;;;;18.25;36.32;95098.84;10437122;28;1942;-55
2022/12/08 01:29:11;;;;;;;;;;;;;;;18.22;36.37;95091.53;10442057;28;1938;-52
2022/12/08 01:34:22;;;;;;;;;;;;;;;18.17;36.48;95090.78;10437359;28;1963;-54
2022/12/08 01:39:22;;;;;;;;;;;;;;;18.14;36.42;95096.56;10435369;28;1911;-52
2022/12/08 01:44:22;;;;;;;;;;;;;;;18.15;36.26;95082.41;10428140;28;2019;-53
2022/12/08 01:49:27;;;;;;;;;;;;;;;18.11;36.40;95078.75;10429889;28;2018;-53
2022/12/08 01:54:33;;;;;;;;;;;;;;;18.11;36.35;95073.53;10433401;28;2010;-54
2022/12/08 01:59:34;;;;;;;;;;;;;;;18.10;36.28;95069.31;10427618;28;1970;-52
2022/12/08 02:04:34;;;;;;;;;;;;;;;18.09;36.33;95065.94;10427144;28;2056;-51
2022/12/08 02:09:35;;;;;;;;;;;;;;;18.07;36.31;95062.00;10429628;28;2155;-52
2022/12/08 02:14:35;;;;;;;;;;;;;;;18.03;36.30;95047.88;10440985;28;1985;-52
2022/12/08 02:19:41;;;;;;;;;;;;;;;18.00;36.41;95048.41;10439446;28;1990;-52
2022/12/08 02:24:41;;;;;;;;;;;;;;;18.00;36.40;95037.94;10424561;28;2039;-51
2022/12/08 02:29:47;;;;;;;;;;;;;;;17.98;36.28;95035.59;10426564;28;2127;-54
2022/12/08 02:34:50;;;;;;;;;;;;;;;17.95;36.28;95041.38;10432365;28;1961;-53
2022/12/08 02:40:09;;;;;;;;;;;;;;;17.96;36.22;95031.66;10432354;28;2075;-52
2022/12/08 02:45:23;;;;;;;;;;;;;;;17.94;36.22;95033.78;10430455;28;2066;-50
2022/12/08 02:50:23;;;;;;;;;;;;;;;17.91;36.28;95024.63;10423832;28;1981;-53
2022/12/08 02:55:27;;;;;;;;;;;;;;;17.92;36.13;95014.91;10424082;28;1970;-56
2022/12/08 03:00:28;;;;;;;;;;;;;;;17.91;36.12;95023.84;10426801;28;2250;-53
2022/12/08 03:05:35;;;;;;;;;;;;;;;17.85;36.11;95005.53;10429927;28;2124;-55
2022/12/08 03:10:49;;;;;;;;;;;;;;;17.87;36.10;95013.91;10413290;28;1963;-50
2022/12/08 03:15:50;;;;;;;;;;;;;;;17.85;36.05;95009.97;10419253;28;1966;-53
2022/12/08 03:20:50;;;;;;;;;;;;;;;17.82;36.20;95003.47;10428026;28;2019;-53
2022/12/08 03:25:52;;;;;;;;;;;;;;;17.83;36.11;94999.78;10455400;28;1946;-53
2022/12/08 03:30:52;;;;;;;;;;;;;;;17.80;35.95;94995.06;10440600;28;1949;-52
2022/12/08 03:35:58;;;;;;;;;;;;;;;17.80;36.06;94987.19;10437678;28;1984;-54
2022/12/08 03:46:17;;;;;;;;;;;;;;;17.77;36.14;95000.88;10433691;28;2019;-50
2022/12/08 03:51:18;;;;;;;;;;;;;;;17.77;36.08;94993.00;10439058;28;1962;-53
2022/12/08 03:56:18;;;;;;;;;;;;;;;17.74;36.09;94983.06;10427967;28;2072;-52
2022/12/08 04:01:18;;;;;;;;;;;;;;;17.77;35.87;94984.34;10432378;28;2101;-54
2022/12/08 04:06:19;;;;;;;;;;;;;;;17.74;36.04;94980.44;10435622;28;2025;-51
2022/12/08 04:11:19;;;;;;;;;;;;;;;17.73;35.92;94981.50;10429883;28;1969;-51
2022/12/08 04:16:21;;;;;;;;;;;;;;;17.72;36.03;94974.69;10431755;28;1985;-53
2022/12/08 04:21:22;;;;;;;;;;;;;;;17.69;35.94;94990.97;10443514;28;1982;-50
2022/12/08 04:26:22;;;;;;;;;;;;;;;17.69;35.98;94990.19;10426529;28;2116;-54
2022/12/08 04:31:22;;;;;;;;;;;;;;;17.68;35.95;94975.53;10428853;28;2131;-54
2022/12/08 04:36:22;;;;;;;;;;;;;;;17.65;35.97;94965.56;10434973;28;2002;-53
2022/12/08 04:41:23;;;;;;;;;;;;;;;17.65;35.84;94961.13;10426338;28;1966;-53
2022/12/08 04:46:23;;;;;;;;;;;;;;;17.63;35.97;94962.44;10434506;28;1951;-52
2022/12/08 04:51:23;;;;;;;;;;;;;;;17.62;35.87;94963.50;10435210;28;1938;-54
2022/12/08 04:56:24;;;;;;;;;;;;;;;17.64;35.92;94967.41;10430593;28;1982;-50
2022/12/08 05:01:24;;;;;;;;;;;;;;;17.84;35.57;94964.66;10422377;28;1984;-53
2022/12/08 05:06:24;;;;;;;;;;;;;;;17.91;35.77;94956.44;10430269;28;2068;-52
2022/12/08 05:11:24;;;;;;;;;;;;;;;17.94;35.83;94965.59;10431163;28;1990;-55
2022/12/08 05:16:25;;;;;;;;;;;;;;;17.98;35.89;94961.38;10437473;28;1942;-53
2022/12/08 05:21:25;;;;;;;;;;;;;;;18.06;35.83;94958.16;10452768;28;1957;-51
2022/12/08 05:26:25;;;;;;;;;;;;;;;18.13;35.61;94958.63;10441929;28;1890;-49
2022/12/08 05:31:26;;;;;;;;;;;;;;;18.21;35.52;94955.41;10431116;28;1986;-52
2022/12/08 05:36:26;;;;;;;;;;;;;;;18.23;35.24;94948.03;10427604;28;2109;-52
2022/12/08 05:41:26;;;;;;;;;;;;;;;18.27;35.43;94941.97;10431929;28;2080;-53
2022/12/08 05:46:31;;;;;;;;;;;;;;;18.34;35.01;94939.00;10428201;28;2072;-52
2022/12/08 05:51:31;;;;;;;;;;;;;;;18.39;35.03;94936.31;10439814;28;1894;-53
2022/12/08 05:56:31;;;;;;;;;;;;;;;18.43;35.43;94939.94;10429332;28;1946;-52
2022/12/08 06:01:32;;;;;;;;;;;;;;;18.45;34.09;94935.22;10432498;28;1973;-54
2022/12/08 06:06:33;;;;;;;;;;;;;;;18.51;35.29;94929.66;10429456;28;1891;-53
2022/12/08 06:11:33;;;;;;;;;;;;;;;18.55;35.20;94933.28;10433032;28;1923;-55
2022/12/08 06:16:33;;;;;;;;;;;;;;;18.55;34.33;94941.16;10426784;28;1977;-53
2022/12/08 06:21:34;;;;;;;;;;;;;;;18.61;34.32;94928.75;10436103;28;2097;-52
2022/12/08 06:26:34;;;;;;;;;;;;;;;18.65;34.63;94938.41;10431875;28;1969;-54
2022/12/08 06:31:35;;;;;;;;;;;;;;;18.68;34.54;94944.94;10431728;28;2017;-54
2022/12/08 06:36:35;;;;;;;;;;;;;;;18.74;34.52;94938.56;10429343;28;1977;-54
2022/12/08 06:42:42;;;;;;;;;;;;;;;18.75;34.76;94932.28;10434756;28;1981;-52
2022/12/08 06:46:56;;;;;;;;;;;;;;;18.77;34.17;94932.78;10440721;28;1916;-55
2022/12/08 06:51:56;;;;;;;;;;;;;;;18.79;34.17;94933.28;10432159;28;2062;-54
2022/12/08 06:56:56;;;;;;;;;;;;;;;18.83;34.44;94928.22;10435667;28;1965;-53
2022/12/08 07:01:57;;;;;;;;;;;;;;;18.87;34.57;94932.66;10425247;28;1986;-52
2022/12/08 07:06:57;;;;;;;;;;;;;;;18.91;34.45;94932.84;10441869;28;2128;-55
2022/12/08 07:11:57;;;;;;;;;;;;;;;18.94;34.09;94933.06;10434006;28;1982;-52
2022/12/08 07:16:57;;;;;;;;;;;;;;;18.94;34.36;94943.56;10415926;28;2228;-54
2022/12/08 07:21:58;;;;;;;;;;;;;;;18.96;33.45;94941.44;10424525;28;2054;-52
2022/12/08 07:26:58;;;;;;;;;;;;;;;19.02;34.29;94940.31;10426486;28;1982;-53
2022/12/08 07:31:58;;;;;;;;;;;;;;;19.00;33.55;94946.94;10427486;28;1977;-51
2022/12/08 07:36:59;;;;;;;;;;;;;;;18.99;34.33;94940.91;10429407;28;1988;-50
2022/12/08 07:41:59;;;;;;;;;;;;;;;19.04;34.45;94942.69;10432867;28;1970;-49
2022/12/08 07:47:00;;;;;;;;;;;;;;;19.08;34.53;94943.69;10427007;28;2087;-53
2022/12/08 07:52:00;;;;;;;;;;;;;;;19.13;35.02;94943.59;10419237;28;2125;-53
2022/12/08 07:57:02;;;;;;;;;;;;;;;19.10;34.45;94944.94;10445766;28;1975;-54
2022/12/08 08:02:02;;;;;;;;;;;;;;;19.13;34.78;94941.75;10437504;28;2069;-52
2022/12/08 08:07:03;;;;;;;;;;;;;;;19.16;35.28;94949.09;10439228;28;1750;-54
2022/12/08 08:12:03;;;;;;;;;;;;;;;19.17;35.51;94942.75;10437725;28;1803;-52
2022/12/08 08:17:03;;;;;;;;;;;;;;;19.19;35.60;94943.25;10431904;28;1972;-55
2022/12/08 08:22:03;;;;;;;;;;;;;;;19.19;35.60;94945.88;10441802;28;1929;-52
2022/12/08 08:27:04;;;;;;;;;;;;;;;19.19;35.62;94943.25;10429083;28;1938;-52
2022/12/08 08:32:04;;;;;;;;;;;;;;;19.15;35.73;94950.13;10438041;28;1982;-54
2022/12/08 08:37:05;;;;;;;;;;;;;;;19.13;35.82;94936.50;10432981;28;1969;-52
2022/12/08 08:42:05;;;;;;;;;;;;;;;19.11;35.62;94933.38;10426863;28;1990;-55
2022/12/08 08:47:05;;;;;;;;;;;;;;;19.11;35.61;94937.84;10432996;28;1966;-49
2022/12/08 08:52:06;;;;;;;;;;;;;;;19.06;35.84;94940.56;10427215;28;1981;-52
2022/12/08 08:57:08;;;;;;;;;;;;;;;19.04;35.67;94943.44;10434319;28;1958;-54
2022/12/08 09:02:14;;;;;;;;;;;;;;;18.99;35.63;94946.16;10447701;28;1922;-54
2022/12/08 09:07:14;;;;;;;;;;;;;;;18.95;35.78;94942.53;10433817;28;1997;-54
2022/12/08 09:12:15;;;;;;;;;;;;;;;18.95;35.60;94942.53;10431579;28;1982;-53
2022/12/08 09:17:15;;;;;;;;;;;;;;;18.93;35.68;94939.41;10427731;28;1968;-55
2022/12/08 09:22:15;;;;;;;;;;;;;;;18.90;35.83;94939.94;10435528;28;2118;-53
2022/12/08 09:27:15;;;;;;;;;;;;;;;18.91;35.58;94932.84;10427878;28;1963;-50
2022/12/08 09:32:16;;;;;;;;;;;;;;;18.86;35.81;94927.66;10422934;28;1985;-51
2022/12/08 09:37:16;;;;;;;;;;;;;;;18.86;35.59;94915.31;10427530;28;2128;-54
2022/12/08 09:42:19;;;;;;;;;;;;;;;18.82;35.58;94916.94;10423218;28;1958;-53
2022/12/08 09:47:21;;;;;;;;;;;;;;;18.79;35.93;94906.22;10426866;28;2063;-52
2022/12/08 09:52:23;;;;;;;;;;;;;;;18.76;36.16;94904.94;10438230;28;1999;-52
2022/12/08 09:57:23;;;;;;;;;;;;;;;18.70;35.93;94898.19;10426602;28;1931;-53
2022/12/08 10:02:24;;;;;;;;;;;;;;;18.70;35.92;94890.31;10431564;28;1938;-52
2022/12/08 10:07:37;;;;;;;;;;;;;;;18.63;35.98;94885.41;10433646;28;2041;-53
2022/12/08 10:12:42;;;;;;;;;;;;;;;18.63;36.21;94874.13;10441666;28;1943;-53
2022/12/08 10:17:48;;;;;;;;;;;;;;;18.61;36.09;94869.16;10429683;28;2080;-54
2022/12/08 10:22:50;;;;;;;;;;;;;;;18.53;36.24;94869.00;10428353;28;2006;-54
2022/12/08 10:27:50;;;;;;;;;;;;;;;18.52;36.33;94862.22;10426719;28;2089;-53
2022/12/08 10:32:52;;;;;;;;;;;;;;;18.50;36.11;94854.63;10421754;28;2149;-54
2022/12/08 10:37:56;;;;;;;;;;;;;;;18.48;36.28;94851.50;10406380;28;2079;-52
2022/12/08 10:42:57;;;;;;;;;;;;;;;18.46;36.30;94845.75;10429061;28;1946;-52
2022/12/08 10:48:03;;;;;;;;;;;;;;;18.44;36.16;94833.97;10424701;28;2089;-53
2022/12/08 10:53:07;;;;;;;;;;;;;;;18.41;36.18;94829.25;10430663;28;2012;-52
2022/12/08 10:58:26;;;;;;;;;;;;;;;18.46;36.06;94830.00;10424209;28;1970;-52
2022/12/08 11:03:30;;;;;;;;;;;;;;;18.45;36.22;94819.78;10428289;28;2113;-53
2022/12/08 11:08:30;;;;;;;;;;;;;;;18.44;36.24;94823.47;10424308;28;1946;-56
2022/12/08 11:13:30;;;;;;;;;;;;;;;18.45;36.20;94817.16;10409273;28;2039;-53
2022/12/08 11:18:47;;;;;;;;;;;;;;;18.42;36.96;94802.72;10422080;28;1899;-53
2022/12/08 11:23:48;;;;;;;;;;;;;;;18.36;37.49;94808.34;10434150;28;2049;-55
2022/12/08 11:28:48;;;;;;;;;;;;;;;18.39;38.85;94805.91;10434315;28;1937;-51
2022/12/08 11:33:49;;;;;;;;;;;;;;;18.38;38.65;94795.72;10432509;28;2120;-56
2022/12/08 11:38:50;;;;;;;;;;;;;;;18.45;38.24;94788.28;10433021;28;1951;-54
2022/12/08 11:44:00;;;;;;;;;;;;;;;18.44;38.10;94784.13;10431886;28;1914;-56
2022/12/08 11:49:02;;;;;;;;;;;;;;;18.35;38.27;94777.91;10430260;28;1958;-51
2022/12/08 11:54:14;;;;;;;;;;;;;;;18.38;38.11;94780.72;10436206;28;2028;-54
2022/12/08 11:59:23;;;;;;;;;;;;;;;18.28;38.07;94782.72;10435374;28;1974;-54
2022/12/08 12:04:25;;;;;;;;;;;;;;;18.32;37.95;94778.47;10441170;28;1938;-55
2022/12/08 12:09:40;;;;;;;;;;;;;;;18.33;37.79;94772.94;10433177;28;2033;-53
2022/12/08 12:14:40;;;;;;;;;;;;;;;18.25;37.89;94760.44;10429581;28;2081;-54
2022/12/08 12:19:41;;;;;;;;;;;;;;;18.25;37.67;94763.06;10434651;28;1996;-54
2022/12/08 12:24:41;;;;;;;;;;;;;;;18.23;37.59;94765.19;10429579;28;2046;-52
2022/12/08 12:29:49;;;;;;;;;;;;;;;18.20;37.55;94757.88;10425932;28;1960;-54
2022/12/08 12:34:51;;;;;;;;;;;;;;;18.20;37.46;94759.72;10437187;28;1961;-54
2022/12/08 12:39:51;;;;;;;;;;;;;;;18.21;37.52;94753.44;10450407;28;1945;-54
2022/12/08 12:44:57;;;;;;;;;;;;;;;18.18;37.58;94746.09;10431465;28;1981;-54
2022/12/08 12:50:05;;;;;;;;;;;;;;;18.13;37.43;94744.34;10437453;28;1966;-54
2022/12/08 12:55:08;;;;;;;;;;;;;;;18.12;37.42;94742.78;10435910;28;2026;-53
2022/12/08 13:00:15;;;;;;;;;;;;;;;18.12;37.41;94744.63;10438954;28;2055;-52
2022/12/08 13:05:29;;;;;;;;;;;;;;;18.11;37.47;94735.19;10425711;28;2062;-54
2022/12/08 13:10:30;;;;;;;;;;;;;;;18.15;37.43;94741.44;10431289;28;1903;-53
2022/12/08 13:15:34;;;;;;;;;;;;;;;18.16;37.63;94732.50;10431205;28;1970;-55
2022/12/08 13:21:01;;;;;;;;;;;;;;;18.26;37.20;94724.50;10428950;28;1947;-54
2022/12/08 13:26:11;;;;;;;;;;;;;;;18.40;36.99;94725.38;10400507;28;2192;-52
2022/12/08 13:31:47;;;;;;;;;;;;;;;18.41;36.87;94719.81;10431270;28;2117;-52
2022/12/08 13:36:47;;;;;;;;;;;;;;;18.50;36.84;94715.53;10377202;28;2083;-56
2022/12/08 13:41:55;;;;;;;;;;;;;;;18.58;36.73;94708.84;10426760;28;1946;-52
2022/12/08 13:46:56;;;;;;;;;;;;;;;18.61;36.56;94706.44;10435266;28;1967;-52
2022/12/08 13:51:56;;;;;;;;;;;;;;;18.67;36.56;94707.13;10439252;28;2064;-52
2022/12/08 13:56:56;;;;;;;;;;;;;;;18.70;36.32;94709.19;10420154;28;1970;-54
2022/12/08 14:01:58;;;;;;;;;;;;;;;18.71;36.45;94713.41;10431679;28;1943;-54
2022/12/08 14:06:58;;;;;;;;;;;;;;;18.74;36.21;94718.06;10426316;28;2017;-50
2022/12/08 14:12:17;;;;;;;;;;;;;;;18.81;36.21;94717.69;10446069;28;2060;-54
2022/12/08 14:17:18;;;;;;;;;;;;;;;18.87;36.37;94727.06;10428967;28;2021;-53
2022/12/08 14:22:19;;;;;;;;;;;;;;;18.91;36.35;94726.19;10430706;28;1891;-59
2022/12/08 14:27:23;;;;;;;;;;;;;;;18.96;36.10;94726.09;10431916;28;2104;-53
2022/12/08 14:32:31;;;;;;;;;;;;;;;18.95;36.03;94721.94;10431364;28;2009;-51
2022/12/08 14:37:32;;;;;;;;;;;;;;;18.94;36.12;94722.97;10432984;28;2357;-54
2022/12/08 14:42:40;;;;;;;;;;;;;;;18.96;36.14;94712.97;10407924;28;1992;-50
2022/12/08 14:47:40;;;;;;;;;;;;;;;18.96;36.08;94705.09;10453247;28;2015;-52
2022/12/08 14:52:45;;;;;;;;;;;;;;;18.96;36.24;94710.34;10434277;28;2093;-55
2022/12/08 14:57:45;;;;;;;;;;;;;;;18.97;36.04;94711.91;10434125;28;1977;-55
2022/12/08 15:02:50;;;;;;;;;;;;;;;18.99;35.83;94709.78;10419019;28;2016;-51
2022/12/08 15:07:51;;;;;;;;;;;;;;;19.01;35.87;94705.00;10429811;28;1902;-53
2022/12/08 15:13:15;;;;;;;;;;;;;;;19.01;35.96;94704.22;10428356;28;1967;-55
2022/12/08 15:18:15;;;;;;;;;;;;;;;19.02;36.01;94706.56;10412037;28;2100;-53
2022/12/08 15:23:32;;;;;;;;;;;;;;;19.03;35.77;94715.22;10426628;28;1898;-52
2022/12/08 15:28:32;;;;;;;;;;;;;;;19.06;35.57;94712.78;10439035;28;2010;-53
2022/12/08 15:33:32;;;;;;;;;;;;;;;19.08;35.78;94717.78;10438836;28;2018;-53
2022/12/08 15:38:37;;;;;;;;;;;;;;;19.11;35.61;94720.59;10431396;28;1965;-51
2022/12/08 15:43:37;;;;;;;;;;;;;;;19.14;35.74;94727.13;10432976;28;2011;-53
2022/12/08 15:48:37;;;;;;;;;;;;;;;19.16;35.60;94723.16;10439101;28;2057;-55
2022/12/08 15:53:38;;;;;;;;;;;;;;;19.17;35.55;94718.66;10430767;28;2107;-55
2022/12/08 15:58:38;;;;;;;;;;;;;;;19.20;35.70;94713.63;10421025;28;1969;-54
2022/12/08 16:03:38;;;;;;;;;;;;;;;19.22;35.60;94722.00;10439612;28;2101;-53
2022/12/08 16:08:38;;;;;;;;;;;;;;;19.25;35.75;94710.13;10432659;28;1982;-54
2022/12/08 16:13:51;;;;;;;;;;;;;;;19.27;35.66;94711.38;10435626;28;2045;-53
2022/12/08 16:18:51;;;;;;;;;;;;;;;19.29;35.25;94714.50;10435638;28;1958;-54
2022/12/08 16:23:51;;;;;;;;;;;;;;;19.31;35.32;94720.25;10432621;28;2041;-53
2022/12/08 16:28:51;;;;;;;;;;;;;;;19.33;35.43;94714.72;10434647;28;1978;-54
2022/12/08 16:33:52;;;;;;;;;;;;;;;19.33;35.20;94697.13;10436943;28;2004;-52
2022/12/08 16:38:52;;;;;;;;;;;;;;;19.34;34.98;94697.91;10440034;28;2045;-55
2022/12/08 16:43:52;;;;;;;;;;;;;;;19.36;35.06;94696.56;10434345;28;1930;-53
2022/12/08 16:48:52;;;;;;;;;;;;;;;19.36;35.20;94698.38;10436010;28;1992;-54
2022/12/08 16:53:53;;;;;;;;;;;;;;;19.35;34.58;94692.34;10434611;28;1970;-52
2022/12/08 16:58:53;;;;;;;;;;;;;;;19.25;33.20;94691.72;10428769;28;2105;-52
2022/12/08 17:03:54;;;;;;;;;;;;;;;19.35;34.58;94687.09;10428524;28;1983;-49
2022/12/08 17:08:54;;;;;;;;;;;;;;;19.29;33.70;94693.47;10427593;28;1946;-51
2022/12/08 17:13:54;;;;;;;;;;;;;;;19.39;34.93;94692.56;10428029;28;1906;-51
2022/12/08 17:18:55;;;;;;;;;;;;;;;19.56;35.27;94692.00;10409223;28;2118;-53
2022/12/08 17:23:55;;;;;;;;;;;;;;;19.60;35.32;94688.47;10439637;28;2128;-51
2022/12/08 17:28:55;;;;;;;;;;;;;;;19.61;34.95;94687.41;10428751;28;1953;-53
2022/12/08 17:34:02;;;;;;;;;;;;;;;19.64;34.40;94676.28;10432820;28;2109;-57
2022/12/08 17:39:03;;;;;;;;;;;;;;;19.69;35.29;94670.16;10434168;28;2033;-56
2022/12/08 17:44:08;;;;;;;;;;;;;;;19.72;35.14;94665.09;10420160;28;1914;-55
2022/12/08 17:49:14;;;;;;;;;;;;;;;19.65;34.53;94671.81;10457648;28;2149;-54
2022/12/08 17:54:15;;;;;;;;;;;;;;;19.62;34.38;94669.78;10430629;28;1949;-52
2022/12/08 17:59:16;;;;;;;;;;;;;;;19.57;34.16;94672.50;10433438;28;2034;-55
2022/12/08 18:04:16;;;;;;;;;;;;;;;19.60;34.40;94670.06;10431719;28;2025;-55
2022/12/08 18:09:16;;;;;;;;;;;;;;;19.59;34.28;94675.63;10424174;28;2034;-54
2022/12/08 18:14:17;;;;;;;;;;;;;;;19.60;34.77;94669.31;10421952;28;1997;-55
2022/12/08 18:19:19;;;;;;;;;;;;;;;19.64;34.78;94678.16;10428351;28;2090;-53
2022/12/08 18:24:20;;;;;;;;;;;;;;;19.66;34.90;94676.03;10421568;28;1974;-56
2022/12/08 18:29:21;;;;;;;;;;;;;;;19.66;34.94;94663.63;10424858;28;2080;-55
2022/12/08 18:34:21;;;;;;;;;;;;;;;19.67;35.07;94656.53;10428726;28;2166;-55
2022/12/08 18:39:25;;;;;;;;;;;;;;;19.67;35.27;94661.78;10434723;28;2024;-55
2022/12/08 18:44:26;;;;;;;;;;;;;;;19.66;35.09;94647.09;10426535;28;2115;-55
2022/12/08 18:49:26;;;;;;;;;;;;;;;19.67;35.23;94653.91;10431100;28;1991;-56
2022/12/08 18:54:26;;;;;;;;;;;;;;;19.66;35.19;94644.47;10419201;28;2499;-54
2022/12/08 18:59:26;;;;;;;;;;;;;;;19.66;34.88;94639.22;10423900;28;2240;-56
2022/12/08 19:04:27;;;;;;;;;;;;;;;19.65;34.91;94656.84;10422275;28;2022;-54
2022/12/08 19:09:27;;;;;;;;;;;;;;;19.65;34.94;94666.56;10424171;28;2253;-55
2022/12/08 19:14:29;;;;;;;;;;;;;;;19.62;34.83;94664.53;10428021;28;2059;-54
2022/12/08 19:19:30;;;;;;;;;;;;;;;19.60;34.62;94662.19;10422471;28;2024;-55
2022/12/08 19:24:33;;;;;;;;;;;;;;;19.62;34.08;94659.28;10423508;28;2046;-55
2022/12/08 19:29:33;;;;;;;;;;;;;;;19.59;34.55;94654.59;10427258;28;2052;-55
2022/12/08 19:34:34;;;;;;;;;;;;;;;19.61;34.77;94666.38;10424116;28;2121;-54
2022/12/08 19:45:03;;;;;;;;;;;;;;;19.61;34.48;94652.44;10433304;28;2166;-56
2022/12/08 19:55:22;;;;;;;;;;;;;;;19.67;34.90;94646.03;10436189;28;2078;-53
2022/12/08 20:00:23;;;;;;;;;;;;;;;19.53;33.43;94659.19;10429783;28;2018;-56
2022/12/08 20:05:23;;;;;;;;;;;;;;;19.53;33.78;94656.56;10428710;28;2183;-53
2022/12/08 20:10:24;;;;;;;;;;;;;;;19.56;34.29;94650.69;10445480;28;2065;-54
2022/12/08 20:15:25;;;;;;;;;;;;;;;19.55;34.35;94643.09;10436362;28;2054;-55
2022/12/08 20:20:25;;;;;;;;;;;;;;;19.60;34.05;94638.53;10436015;28;2066;-56
2022/12/08 20:25:25;;;;;;;;;;;;;;;19.54;33.78;94636.31;10439932;28;2002;-54
2022/12/08 20:30:26;;;;;;;;;;;;;;;19.49;33.59;94651.09;10423849;28;2045;-53
2022/12/08 20:35:26;;;;;;;;;;;;;;;19.54;33.44;94639.69;10436253;28;2023;-55
2022/12/08 20:40:26;;;;;;;;;;;;;;;19.53;33.42;94645.25;10432711;28;2097;-54
2022/12/08 20:45:27;;;;;;;;;;;;;;;19.54;34.25;94644.19;10430623;28;2010;-55
2022/12/08 20:50:27;;;;;;;;;;;;;;;19.53;34.29;94640.00;10436077;28;2038;-53
2022/12/08 20:55:27;;;;;;;;;;;;;;;19.52;34.67;94643.69;10432899;28;2031;-53
2022/12/08 21:00:28;;;;;;;;;;;;;;;19.52;34.62;94643.69;10429387;28;2136;-53
2022/12/08 21:05:28;;;;;;;;;;;;;;;19.49;34.90;94631.94;10435926;28;2093;-55
2022/12/08 21:10:28;;;;;;;;;;;;;;;19.49;34.73;94629.31;10436040;28;2002;-52
2022/12/08 21:15:28;;;;;;;;;;;;;;;19.41;34.98;94622.84;10440500;28;2005;-53
2022/12/08 21:20:29;;;;;;;;;;;;;;;19.39;35.04;94609.22;10437659;28;2074;-54
2022/12/08 21:25:29;;;;;;;;;;;;;;;19.37;35.17;94616.63;10433374;28;1934;-54
2022/12/08 21:30:29;;;;;;;;;;;;;;;19.36;35.06;94617.72;10422876;28;2107;-55
2022/12/08 21:35:30;;;;;;;;;;;;;;;19.34;35.20;94619.06;10436327;28;2054;-54
2022/12/08 21:40:30;;;;;;;;;;;;;;;19.27;35.06;94611.53;10431879;28;2123;-55
2022/12/08 21:45:32;;;;;;;;;;;;;;;19.28;35.09;94615.75;10431357;28;2029;-49
2022/12/08 21:50:32;;;;;;;;;;;;;;;19.29;35.38;94624.38;10440725;28;2138;-49
2022/12/08 21:55:34;;;;;;;;;;;;;;;19.25;35.60;94642.59;10431203;28;2037;-55
2022/12/08 22:00:34;;;;;;;;;;;;;;;19.23;35.65;94626.34;10433411;28;2143;-53
2022/12/08 22:05:36;;;;;;;;;;;;;;;19.22;35.46;94614.28;10430907;28;1953;-53
2022/12/08 22:10:39;;;;;;;;;;;;;;;19.17;35.50;94630.13;10429877;28;1953;-54
2022/12/08 22:15:40;;;;;;;;;;;;;;;19.16;35.75;94630.44;10428187;28;2121;-54
2022/12/08 22:20:40;;;;;;;;;;;;;;;19.10;35.74;94624.47;10431473;28;2033;-54
2022/12/08 22:25:41;;;;;;;;;;;;;;;19.07;35.76;94621.66;10431990;28;2084;-54
2022/12/08 22:30:42;;;;;;;;;;;;;;;19.05;35.79;94608.81;10428088;28;2013;-54
2022/12/08 22:35:42;;;;;;;;;;;;;;;19.04;36.12;94611.75;10425858;28;2030;-52
2022/12/08 22:40:42;;;;;;;;;;;;;;;19.00;37.51;94605.50;10433257;28;2086;-52
2022/12/08 22:45:43;;;;;;;;;;;;;;;19.04;38.39;94603.88;10433545;28;2014;-51
2022/12/08 22:50:43;;;;;;;;;;;;;;;19.00;38.53;94598.41;10431007;28;2250;-54
2022/12/08 22:55:44;;;;;;;;;;;;;;;18.98;38.59;94581.41;10430077;28;2063;-55
2022/12/08 23:00:44;;;;;;;;;;;;;;;18.98;38.43;94584.78;10431699;28;2069;-52
2022/12/08 23:05:44;;;;;;;;;;;;;;;18.96;38.45;94609.78;10431369;28;1991;-51
2022/12/08 23:10:45;;;;;;;;;;;;;;;18.92;38.29;94596.44;10436444;28;1962;-52
2022/12/08 23:15:45;;;;;;;;;;;;;;;18.92;38.19;94579.94;10427796;28;2111;-54
2022/12/08 23:21:01;;;;;;;;;;;;;;;18.83;38.18;94587.69;10428871;28;2105;-55
2022/12/08 23:26:01;;;;;;;;;;;;;;;18.81;38.30;94594.31;10425098;28;2085;-53
2022/12/08 23:31:05;;;;;;;;;;;;;;;18.77;38.01;94580.97;10411571;28;2067;-54
2022/12/08 23:36:06;;;;;;;;;;;;;;;18.77;38.05;94570.47;10424510;28;1967;-55
2022/12/08 23:41:07;;;;;;;;;;;;;;;18.76;37.82;94571.53;10420643;28;2014;-56
2022/12/08 23:46:07;;;;;;;;;;;;;;;18.74;37.74;94552.66;10423460;28;2023;-54
2022/12/08 23:51:07;;;;;;;;;;;;;;;18.71;37.61;94548.00;10439144;28;1911;-55
2022/12/08 23:56:08;;;;;;;;;;;;;;;18.71;37.62;94560.34;10431055;28;2398;-53
